Time;durP1;ratioP1;P1;durP2;ratioP2;P2;SDS_P1;SDS_P2;PMS_P1;PMS_P2;Temp;Humidity;BMP_temperature;BMP_pressure;BME280_temperature;BME280_humidity;BME280_pressure;Samples;Min_cycle;Max_cycle;Signal;HPM_P1;HPM_P2
2021/06/12 00:01:02;;;;;;;2.13;1.50;;;;;;;15.21;63.16;101640.72;4956211;29;20074;-45
2021/06/12 00:03:35;;;;;;;5.25;1.50;;;;;;;15.17;63.39;101641.75;4955000;28;20050;-46
2021/06/12 00:06:06;;;;;;;2.78;1.50;;;;;;;15.17;63.22;101648.16;4955440;29;20047;-45
2021/06/12 00:08:33;;;;;;;3.40;1.83;;;;;;;15.14;63.08;101646.06;4955868;29;20596;-49
2021/06/12 00:11:03;;;;;;;3.58;1.05;;;;;;;15.08;63.18;101644.72;4955976;29;20050;-46
2021/06/12 00:13:31;;;;;;;2.83;2.08;;;;;;;15.05;63.35;101650.19;4954524;29;20134;-48
2021/06/12 00:15:58;;;;;;;2.58;1.75;;;;;;;14.95;63.53;101643.13;4955684;29;20139;-47
2021/06/12 00:18:26;;;;;;;1.05;0.75;;;;;;;14.91;64.02;101642.19;4955820;29;20151;-50
2021/06/12 00:20:55;;;;;;;2.03;1.35;;;;;;;14.82;64.31;101657.44;4955672;29;20098;-47
2021/06/12 00:23:23;;;;;;;2.33;1.40;;;;;;;14.76;64.15;101667.22;4958582;28;20154;-46
2021/06/12 00:25:50;;;;;;;3.28;1.63;;;;;;;14.72;64.46;101667.09;4954699;29;21777;-45
2021/06/12 00:28:17;;;;;;;4.82;1.77;;;;;;;14.67;64.59;101667.31;4955291;29;20031;-47
2021/06/12 00:30:43;;;;;;;3.25;1.17;;;;;;;14.72;64.38;101664.28;4955751;29;20477;-50
2021/06/12 00:33:10;;;;;;;1.52;1.30;;;;;;;14.70;64.11;101663.84;4954388;29;20047;-50
2021/06/12 00:35:37;;;;;;;3.67;1.50;;;;;;;14.72;64.31;101658.72;4937807;29;20049;-46
2021/06/12 00:38:05;;;;;;;2.13;1.35;;;;;;;14.74;64.24;101662.00;4954617;29;20086;-48
2021/06/12 00:40:32;;;;;;;3.75;1.17;;;;;;;14.72;64.27;101664.28;4955521;29;20078;-48
2021/06/12 00:42:58;;;;;;;2.40;1.40;;;;;;;14.66;64.34;101662.13;4955576;29;20480;-45
2021/06/12 00:45:29;;;;;;;2.35;1.23;;;;;;;14.56;64.79;101671.78;4954215;29;20130;-46
2021/06/12 00:47:58;;;;;;;2.20;1.40;;;;;;;14.52;64.55;101670.84;4931560;29;20053;-48
2021/06/12 00:50:30;;;;;;;1.83;1.23;;;;;;;14.38;65.16;101671.19;4954858;29;20373;-47
2021/06/12 00:52:57;;;;;;;;;;;;;;;14.31;65.38;101676.53;4955792;29;20476;-48
2021/06/12 00:55:24;;;;;;;2.10;1.20;;;;;;;14.31;64.94;101679.31;4952805;29;19930;-48
2021/06/12 00:57:51;;;;;;;1.42;1.02;;;;;;;14.31;65.01;101681.25;4946449;29;20050;-47
2021/06/12 01:00:20;;;;;;;3.28;1.65;;;;;;;14.29;65.25;101672.44;4954178;29;20519;-48
2021/06/12 01:02:48;;;;;;;4.57;1.45;;;;;;;14.26;64.97;101673.13;4955058;28;20043;-44
2021/06/12 01:05:18;;;;;;;3.95;1.30;;;;;;;14.19;65.57;101673.69;4952875;29;20071;-47
2021/06/12 01:07:46;;;;;;;4.15;1.40;;;;;;;14.22;65.40;101683.31;4953754;29;20150;-48
2021/06/12 01:10:15;;;;;;;2.88;1.10;;;;;;;14.29;65.49;101689.16;4954145;28;20377;-44
2021/06/12 01:12:45;;;;;;;3.50;1.15;;;;;;;14.28;65.40;101676.38;4954520;29;20055;-46
2021/06/12 01:15:13;;;;;;;2.80;1.23;;;;;;;14.28;65.50;101676.38;4952525;29;20111;-46
2021/06/12 01:17:49;;;;;;;5.18;1.25;;;;;;;14.22;66.27;101677.75;4937136;29;20460;-47
2021/06/12 01:20:35;;;;;;;2.47;1.33;;;;;;;14.19;66.48;101672.91;4954937;29;20035;-48
2021/06/12 01:23:11;;;;;;;1.45;0.95;;;;;;;14.20;65.98;101674.50;4951032;28;20079;-45
2021/06/12 01:25:37;;;;;;;4.18;1.10;;;;;;;14.19;65.69;101675.69;4948868;29;20047;-48
2021/06/12 01:28:42;;;;;;;1.67;0.90;;;;;;;14.11;66.54;101666.25;4954805;29;20074;-46
2021/06/12 01:31:11;;;;;;;3.63;1.27;;;;;;;14.19;65.65;101667.34;4949460;29;20810;-48
2021/06/12 01:33:40;;;;;;;1.98;1.00;;;;;;;14.22;65.61;101672.19;4953785;29;20039;-47
2021/06/12 01:36:09;;;;;;;2.25;1.77;;;;;;;14.19;65.65;101678.47;4953180;29;20070;-51
2021/06/12 01:38:43;;;;;;;4.57;1.58;;;;;;;14.22;65.76;101677.75;4954142;29;20448;-49
2021/06/12 01:41:15;;;;;;;2.47;1.10;;;;;;;14.23;65.79;101662.69;4937361;29;20055;-44
2021/06/12 01:43:43;;;;;;;3.65;1.75;;;;;;;14.18;65.78;101677.66;4953764;29;20047;-50
2021/06/12 01:46:12;;;;;;;3.30;1.70;;;;;;;14.14;65.86;101687.06;4953535;29;20081;-47
2021/06/12 01:48:42;;;;;;;4.35;1.33;;;;;;;14.10;66.01;101678.56;4953906;29;20071;-45
2021/06/12 01:51:09;;;;;;;3.13;1.52;;;;;;;14.06;66.24;101679.63;4954355;29;20058;-44
2021/06/12 01:53:38;;;;;;;4.07;1.45;;;;;;;14.03;66.33;101676.34;4953590;29;20039;-45
2021/06/12 01:56:09;;;;;;;1.67;1.27;;;;;;;14.09;66.24;101678.91;4953390;29;20055;-48
2021/06/12 01:58:39;;;;;;;1.80;1.00;;;;;;;13.98;66.65;101679.34;4953772;29;20085;-49
2021/06/12 02:01:08;;;;;;;2.80;1.40;;;;;;;13.97;66.25;101677.75;4953926;29;20051;-46
2021/06/12 02:03:36;;;;;;;2.45;1.77;;;;;;;13.96;66.53;101676.13;4951964;28;20535;-46
2021/06/12 02:06:04;;;;;;;3.70;1.27;;;;;;;13.95;66.37;101682.03;4953395;29;20047;-46
2021/06/12 02:08:32;;;;;;;2.03;1.05;;;;;;;13.95;66.50;101693.19;4935975;29;20078;-45
2021/06/12 02:10:59;;;;;;;3.85;1.60;;;;;;;13.89;66.61;101684.22;4953693;29;20507;-48
2021/06/12 02:13:27;;;;;;;3.60;1.30;;;;;;;13.86;66.82;101682.13;4953387;29;20083;-45
2021/06/12 02:15:56;;;;;;;3.47;1.40;;;;;;;13.86;66.81;101684.91;4952879;29;20054;-49
2021/06/12 02:18:25;;;;;;;3.88;1.00;;;;;;;13.90;66.70;101683.06;4953734;29;20058;-46
2021/06/12 02:20:53;;;;;;;2.22;1.23;;;;;;;13.94;66.80;101686.78;4952916;28;20126;-49
2021/06/12 02:23:23;;;;;;;2.08;1.20;;;;;;;13.96;66.55;101687.25;4956777;28;20055;-47
2021/06/12 02:25:51;;;;;;;4.47;1.13;;;;;;;14.01;66.37;101678.69;4953279;29;20051;-45
2021/06/12 02:28:20;;;;;;;4.22;1.10;;;;;;;14.00;66.41;101692.94;4953225;29;20063;-46
2021/06/12 02:30:53;;;;;;;3.50;1.52;;;;;;;13.92;66.40;101688.28;4953380;29;20135;-46
2021/06/12 02:33:23;;;;;;;2.50;0.95;;;;;;;13.90;66.78;101698.94;4953027;29;20121;-47
2021/06/12 02:35:50;;;;;;;3.08;1.33;;;;;;;13.92;66.53;101697.47;4953227;29;20039;-45
2021/06/12 02:38:17;;;;;;;3.30;1.55;;;;;;;13.94;66.78;101697.09;4952459;29;20043;-52
2021/06/12 02:40:44;;;;;;;3.70;1.25;;;;;;;13.94;66.50;101711.03;4936152;29;20075;-46
2021/06/12 02:43:10;;;;;;;3.90;1.50;;;;;;;13.95;66.82;101704.31;4953123;29;20040;-46
2021/06/12 02:45:37;;;;;;;3.85;0.88;;;;;;;13.97;66.63;101713.13;4941080;29;20122;-45
2021/06/12 02:48:08;;;;;;;2.67;1.33;;;;;;;13.92;66.95;101708.59;4953450;29;20400;-45
2021/06/12 02:50:37;;;;;;;3.05;1.20;;;;;;;13.91;66.90;101709.75;4940494;29;20047;-47
2021/06/12 02:53:10;;;;;;;2.05;1.40;;;;;;;13.93;66.96;101713.00;4952659;29;20500;-45
2021/06/12 02:55:40;;;;;;;4.57;1.50;;;;;;;13.83;66.97;101726.53;4935481;29;20507;-46
2021/06/12 02:58:08;;;;;;;2.58;1.35;;;;;;;13.76;66.98;101727.09;4952842;29;20488;-52
2021/06/12 03:00:37;;;;;;;4.72;1.48;;;;;;;13.79;67.05;101739.53;4934755;29;20059;-49
2021/06/12 03:03:05;;;;;;;2.08;1.05;;;;;;;13.81;67.02;101728.84;4953006;28;20048;-46
2021/06/12 03:05:40;;;;;;;1.77;1.35;;;;;;;13.83;66.97;101720.97;4952470;29;20142;-45
2021/06/12 03:08:09;;;;;;;2.38;1.27;;;;;;;13.78;67.05;101730.34;4953541;29;20051;-48
2021/06/12 03:10:37;;;;;;;2.97;1.27;;;;;;;13.75;67.21;101731.03;4949964;29;20555;-45
2021/06/12 03:13:07;;;;;;;6.25;1.80;;;;;;;13.73;67.11;101727.78;4952119;29;20051;-46
2021/06/12 03:15:34;;;;;;;2.85;1.30;;;;;;;13.71;67.18;101738.47;4952814;29;20098;-46
2021/06/12 03:18:03;;;;;;;3.65;1.38;;;;;;;13.75;67.27;101741.34;4952313;29;20050;-45
2021/06/12 03:20:31;;;;;;;5.10;2.03;;;;;;;13.78;67.12;101741.50;4952992;29;20047;-48
2021/06/12 03:23:02;;;;;;;1.55;1.02;;;;;;;13.76;67.07;101748.56;4939411;29;20039;-48
2021/06/12 03:25:30;;;;;;;3.83;1.35;;;;;;;13.67;67.08;101745.84;4952077;29;20118;-44
2021/06/12 03:27:58;;;;;;;3.75;1.33;;;;;;;13.64;67.31;101746.53;4939275;29;20122;-45
2021/06/12 03:30:29;;;;;;;2.13;1.08;;;;;;;13.70;67.29;101745.16;4953154;29;20043;-47
2021/06/12 03:32:57;;;;;;;4.05;1.42;;;;;;;13.70;67.06;101739.59;4935520;29;20146;-48
2021/06/12 03:35:25;;;;;;;2.95;1.60;;;;;;;13.68;67.27;101735.53;4956235;29;20591;-48
2021/06/12 03:37:53;;;;;;;3.67;1.40;;;;;;;13.68;67.34;101733.56;4955930;29;20039;-49
2021/06/12 03:40:23;;;;;;;3.38;1.45;;;;;;;13.64;67.30;101738.19;4956207;29;20042;-49
2021/06/12 03:42:53;;;;;;;2.90;1.63;;;;;;;13.65;67.33;101741.78;4938536;29;20515;-48
2021/06/12 03:45:22;;;;;;;2.45;1.30;;;;;;;13.64;67.21;101740.97;4956391;29;20062;-49
2021/06/12 03:47:53;;;;;;;2.25;1.52;;;;;;;13.68;67.29;101744.72;4955706;29;20122;-51
2021/06/12 03:50:22;;;;;;;3.47;1.17;;;;;;;13.72;67.12;101742.84;4954722;29;20468;-49
2021/06/12 03:52:50;;;;;;;3.22;1.45;;;;;;;13.69;67.17;101742.72;4953877;29;20047;-47
2021/06/12 03:55:18;;;;;;;3.15;1.40;;;;;;;13.68;67.13;101753.06;4939303;29;20085;-45
2021/06/12 03:57:46;;;;;;;2.40;1.38;;;;;;;13.63;66.98;101761.63;4955361;29;20083;-46
2021/06/12 04:00:15;;;;;;;2.83;1.27;;;;;;;13.60;67.24;101762.28;4955832;29;20047;-48
2021/06/12 04:02:47;;;;;;;3.45;1.50;;;;;;;13.64;67.16;101762.41;4955118;28;20126;-49
2021/06/12 04:05:13;;;;;;;4.13;1.40;;;;;;;13.66;67.10;101763.69;4955656;29;20039;-44
2021/06/12 04:07:40;;;;;;;5.05;1.15;;;;;;;13.65;67.09;101772.38;4955731;29;20810;-46
2021/06/12 04:10:10;;;;;;;2.92;1.45;;;;;;;13.59;67.21;101766.22;4954476;29;20125;-46
2021/06/12 04:12:37;;;;;;;3.63;1.52;;;;;;;13.56;67.19;101758.53;4955635;29;20071;-45
2021/06/12 04:15:05;;;;;;;1.73;1.27;;;;;;;13.62;67.11;101770.28;4938426;29;20480;-45
2021/06/12 04:17:32;;;;;;;6.57;1.70;;;;;;;13.67;67.09;101770.06;4948765;29;20536;-48
2021/06/12 04:19:59;;;;;;;1.50;1.35;;;;;;;13.72;66.89;101764.28;4955237;29;20049;-45
2021/06/12 04:22:27;;;;;;;4.85;1.30;;;;;;;13.72;66.95;101762.34;4959545;28;20530;-45
2021/06/12 04:24:54;;;;;;;1.27;1.10;;;;;;;13.71;66.79;101760.72;4955473;29;20058;-46
2021/06/12 04:27:21;;;;;;;2.90;1.30;;;;;;;13.69;66.93;101760.22;4955251;29;20467;-47
2021/06/12 04:29:48;;;;;;;2.80;1.45;;;;;;;13.65;67.08;101767.66;4955514;29;20122;-51
2021/06/12 04:32:15;;;;;;;1.35;1.00;;;;;;;13.63;67.01;101761.63;4955073;29;20046;-45
2021/06/12 04:34:42;;;;;;;3.05;1.27;;;;;;;13.61;66.82;101774.25;4955231;29;20055;-49
2021/06/12 04:37:09;;;;;;;1.30;1.08;;;;;;;13.62;66.90;101765.53;4954989;29;20492;-46
2021/06/12 04:39:36;;;;;;;2.03;1.02;;;;;;;13.66;66.79;101744.22;4955169;29;20082;-51
2021/06/12 04:42:03;;;;;;;2.40;1.55;;;;;;;13.73;66.77;101744.50;4955417;29;20126;-45
2021/06/12 04:44:30;;;;;;;4.20;1.38;;;;;;;13.77;66.67;101750.16;4952947;28;20757;-48
2021/06/12 04:46:56;;;;;;;2.05;1.25;;;;;;;13.74;66.53;101746.09;4951865;29;20058;-47
2021/06/12 04:49:23;;;;;;;4.43;1.67;;;;;;;13.70;66.77;101744.34;4946840;29;20078;-45
2021/06/12 04:51:50;;;;;;;2.38;1.30;;;;;;;13.68;66.83;101746.66;4953721;29;20121;-47
2021/06/12 04:54:17;;;;;;;3.67;1.30;;;;;;;13.71;66.88;101757.13;4954642;29;20150;-45
2021/06/12 04:56:44;;;;;;;5.32;1.27;;;;;;;13.75;66.73;101753.31;4954513;29;20086;-45
2021/06/12 04:59:11;;;;;;;2.47;1.58;;;;;;;13.74;66.71;101757.22;4944902;29;20056;-45
2021/06/12 05:01:37;;;;;;;3.88;1.10;;;;;;;13.78;66.59;101758.19;4954809;29;20449;-46
2021/06/12 05:04:05;;;;;;;1.25;0.80;;;;;;;13.78;66.43;101762.94;4954740;28;20135;-45
2021/06/12 05:06:31;;;;;;;1.75;1.10;;;;;;;13.78;66.79;101768.50;4953702;29;20074;-48
2021/06/12 05:08:58;;;;;;;4.10;1.20;;;;;;;13.74;66.71;101767.56;4954673;29;20074;-45
2021/06/12 05:11:27;;;;;;;1.65;1.10;;;;;;;13.72;66.65;101781.81;4953679;29;20488;-45
2021/06/12 05:13:54;;;;;;;2.30;1.00;;;;;;;13.68;66.61;101789.22;4954067;29;20098;-45
2021/06/12 05:16:21;;;;;;;1.95;1.10;;;;;;;13.71;66.76;101790.50;4937668;29;20433;-44
2021/06/12 05:18:48;;;;;;;2.35;1.35;;;;;;;13.75;66.60;101789.47;4954832;29;20049;-46
2021/06/12 05:21:16;;;;;;;1.00;0.70;;;;;;;13.79;66.60;101787.63;4954577;29;20551;-45
2021/06/12 05:23:42;;;;;;;2.92;0.90;;;;;;;13.88;66.46;101782.81;4958358;28;20079;-46
2021/06/12 05:26:11;;;;;;;4.88;1.17;;;;;;;13.92;66.29;101782.94;4954006;29;20405;-45
2021/06/12 05:28:39;;;;;;;1.33;0.90;;;;;;;14.01;66.06;101778.91;4953951;29;20725;-45
2021/06/12 05:31:06;;;;;;;2.47;0.70;;;;;;;14.06;66.02;101783.44;4954139;29;20134;-50
2021/06/12 05:33:33;;;;;;;3.17;0.82;;;;;;;14.04;65.90;101778.22;4954568;29;20370;-45
2021/06/12 05:36:01;;;;;;;1.40;0.95;;;;;;;14.03;66.06;101796.06;4952467;29;20047;-47
2021/06/12 05:38:28;;;;;;;1.70;0.90;;;;;;;14.02;65.77;101802.81;4953667;29;20051;-45
2021/06/12 05:40:58;;;;;;;2.40;1.00;;;;;;;13.98;65.75;101801.88;4954392;29;20039;-46
2021/06/12 05:43:25;;;;;;;1.77;0.95;;;;;;;14.03;65.73;101801.66;4954507;29;20074;-47
2021/06/12 05:45:52;;;;;;;1.10;0.82;;;;;;;14.09;65.53;101802.25;4953616;29;20468;-46
2021/06/12 05:48:20;;;;;;;1.27;0.80;;;;;;;14.10;65.72;101805.84;4953137;29;20051;-46
2021/06/12 05:50:47;;;;;;;0.82;0.82;;;;;;;14.12;65.38;101800.75;4953840;29;20043;-45
2021/06/12 05:53:15;;;;;;;3.35;1.23;;;;;;;14.09;65.37;101798.66;4954101;29;20517;-47
2021/06/12 05:55:41;;;;;;;1.63;1.02;;;;;;;14.06;65.86;101805.72;4953571;28;20043;-45
2021/06/12 05:58:09;;;;;;;2.03;0.90;;;;;;;14.01;65.86;101806.75;4936243;29;20141;-46
2021/06/12 06:00:36;;;;;;;0.95;0.80;;;;;;;14.01;65.96;101806.75;4953326;29;20067;-47
2021/06/12 06:03:03;;;;;;;1.85;1.20;;;;;;;14.00;65.83;101804.31;4953762;28;20043;-45
2021/06/12 06:05:30;;;;;;;1.90;1.00;;;;;;;14.01;65.86;101805.94;4953844;29;20039;-45
2021/06/12 06:07:57;;;;;;;2.35;0.80;;;;;;;14.04;66.14;101806.06;4953339;29;20055;-49
2021/06/12 06:10:24;;;;;;;3.30;1.27;;;;;;;14.06;65.91;101816.84;4952016;29;20050;-47
2021/06/12 06:12:51;;;;;;;1.98;1.33;;;;;;;14.13;65.85;101813.53;4953849;29;20043;-45
2021/06/12 06:15:18;;;;;;;1.17;1.08;;;;;;;14.21;65.88;101810.66;4953346;29;20050;-47
2021/06/12 06:17:45;;;;;;;3.72;1.00;;;;;;;14.27;65.78;101819.63;4951483;29;20075;-46
2021/06/12 06:20:14;;;;;;;3.75;0.90;;;;;;;14.28;65.62;101821.22;4952930;29;20996;-45
2021/06/12 06:22:41;;;;;;;2.95;1.15;;;;;;;14.30;65.75;101830.03;4958007;28;20127;-46
2021/06/12 06:25:09;;;;;;;3.28;1.02;;;;;;;14.33;66.01;101829.38;4953527;29;20039;-46
2021/06/12 06:27:36;;;;;;;2.45;1.08;;;;;;;14.43;65.99;101824.19;4953400;29;20066;-45
2021/06/12 06:30:04;;;;;;;0.70;0.63;;;;;;;14.61;65.93;101819.25;4931538;29;20071;-47
2021/06/12 06:32:31;;;;;;;1.27;1.13;;;;;;;14.75;65.78;101822.50;4945231;29;20122;-46
2021/06/12 06:34:58;;;;;;;4.80;1.25;;;;;;;14.90;65.58;101832.97;4952888;29;20055;-45
2021/06/12 06:37:25;;;;;;;2.67;1.00;;;;;;;14.97;65.36;101827.63;4952787;29;20252;-46
2021/06/12 06:39:52;;;;;;;2.58;2.03;;;;;;;14.98;65.35;101831.25;4935621;29;20098;-47
2021/06/12 06:42:19;;;;;;;3.05;0.82;;;;;;;15.09;65.36;101824.81;4951868;29;20115;-47
2021/06/12 06:44:46;;;;;;;3.75;1.17;;;;;;;15.23;65.22;101824.47;4935683;29;20086;-46
2021/06/12 06:47:13;;;;;;;1.75;0.90;;;;;;;15.36;64.93;101834.44;4952456;29;20043;-45
2021/06/12 06:49:40;;;;;;;1.70;0.90;;;;;;;15.47;64.81;101834.81;4934685;29;20139;-46
2021/06/12 06:52:09;;;;;;;1.45;0.98;;;;;;;15.48;64.20;101842.03;4952054;29;20793;-46
2021/06/12 06:54:36;;;;;;;2.40;0.63;;;;;;;15.51;63.95;101841.31;4935269;29;20074;-46
2021/06/12 06:57:04;;;;;;;4.80;0.80;;;;;;;15.52;63.59;101838.16;4952513;29;20078;-46
2021/06/12 06:59:33;;;;;;;3.58;1.00;;;;;;;15.60;63.61;101858.75;4952505;29;20043;-46
2021/06/12 07:02:00;;;;;;;1.33;0.80;;;;;;;15.74;63.75;101848.84;4951103;29;20401;-46
2021/06/12 07:04:32;;;;;;;3.53;0.85;;;;;;;15.85;63.75;101863.13;4951803;28;20054;-46
2021/06/12 07:06:59;;;;;;;2.42;0.70;;;;;;;15.92;63.24;101874.47;4951952;28;20051;-46
2021/06/12 07:09:25;;;;;;;3.65;0.70;;;;;;;16.00;62.98;101864.31;4956334;29;20373;-46
2021/06/12 07:11:54;;;;;;;2.08;0.60;;;;;;;16.00;63.12;101853.97;4943589;29;20061;-46
2021/06/12 07:14:21;;;;;;;1.42;1.33;;;;;;;16.00;63.00;101865.16;4947716;29;20484;-47
2021/06/12 07:16:48;;;;;;;1.27;0.60;;;;;;;16.16;62.65;101874.41;4954872;29;20075;-45
2021/06/12 07:19:15;;;;;;;1.85;0.60;;;;;;;16.29;62.59;101866.75;4951300;29;20070;-46
2021/06/12 07:21:42;;;;;;;0.90;0.40;;;;;;;16.47;62.52;101876.44;4947072;28;20511;-48
2021/06/12 07:24:09;;;;;;;0.50;0.50;;;;;;;16.55;61.82;101869.91;4952513;29;20075;-46
2021/06/12 07:26:35;;;;;;;0.82;0.35;;;;;;;16.52;61.46;101872.59;4954715;29;20122;-48
2021/06/12 07:29:02;;;;;;;0.57;0.40;;;;;;;16.67;60.96;101877.44;4954405;28;20127;-47
2021/06/12 07:31:37;;;;;;;1.92;0.30;;;;;;;16.77;60.33;101876.88;4954995;29;20047;-50
2021/06/12 07:34:09;;;;;;;1.85;0.65;;;;;;;16.96;59.56;101879.78;4953968;29;20051;-47
2021/06/12 07:36:37;;;;;;;0.65;0.50;;;;;;;17.08;59.36;101882.47;4953629;29;20053;-52
2021/06/12 07:39:07;;;;;;;0.40;0.30;;;;;;;17.14;58.73;101875.44;4951218;29;20046;-50
2021/06/12 07:41:37;;;;;;;1.90;0.30;;;;;;;17.22;58.44;101868.84;4937331;29;20783;-46
2021/06/12 07:44:06;;;;;;;2.38;0.50;;;;;;;17.19;58.19;101866.78;4953383;29;20555;-46
2021/06/12 07:46:34;;;;;;;1.05;0.30;;;;;;;17.18;57.95;101872.75;4954743;29;20044;-46
2021/06/12 07:49:04;;;;;;;1.08;0.40;;;;;;;17.14;57.41;101869.84;4954850;29;20050;-47
2021/06/12 07:51:33;;;;;;;1.17;0.30;;;;;;;17.02;57.32;101867.16;4954252;29;20492;-49
2021/06/12 07:54:01;;;;;;;2.55;0.25;;;;;;;16.91;57.30;101866.06;4955367;29;20043;-48
2021/06/12 07:56:28;;;;;;;4.95;4.47;;;;;;;16.92;57.51;101868.50;4954715;29;20143;-48
2021/06/12 07:58:55;;;;;;;1.42;1.00;;;;;;;16.91;57.65;101868.88;4952633;29;20127;-48
2021/06/12 08:01:24;;;;;;;0.30;0.30;;;;;;;16.66;57.67;101854.25;4934857;29;20512;-50
2021/06/12 08:03:52;;;;;;;1.15;0.75;;;;;;;16.51;58.10;101868.16;4953899;28;20098;-47
2021/06/12 08:06:20;;;;;;;1.13;0.60;;;;;;;16.52;58.29;101864.22;4954747;29;20567;-46
2021/06/12 08:08:46;;;;;;;1.38;0.75;;;;;;;16.54;58.27;101878.66;4953653;29;20051;-49
2021/06/12 08:11:13;;;;;;;0.60;0.40;;;;;;;16.39;58.68;101878.25;4953418;29;20044;-52
2021/06/12 08:13:40;;;;;;;0.50;0.50;;;;;;;16.51;58.61;101879.34;4953932;29;20076;-47
2021/06/12 08:16:09;;;;;;;2.78;0.60;;;;;;;16.55;58.63;101875.50;4953430;29;20075;-49
2021/06/12 08:18:36;;;;;;;0.98;0.60;;;;;;;16.52;58.69;101881.78;4953818;28;20416;-46
2021/06/12 08:21:03;;;;;;;4.03;0.70;;;;;;;16.50;58.62;101877.72;4953471;29;20117;-48
2021/06/12 08:23:31;;;;;;;2.90;1.08;;;;;;;16.47;58.89;101879.25;4957382;28;20077;-46
2021/06/12 08:26:01;;;;;;;1.00;0.90;;;;;;;16.50;58.62;101872.13;4954318;29;20074;-44
2021/06/12 08:28:30;;;;;;;1.73;1.02;;;;;;;16.51;58.82;101876.56;4952879;29;20047;-48
2021/06/12 08:30:58;;;;;;;1.50;1.13;;;;;;;16.35;59.09;101873.72;4937395;29;20043;-45
2021/06/12 08:33:25;;;;;;;3.45;0.93;;;;;;;16.36;59.52;101867.78;4953743;29;20497;-45
2021/06/12 08:35:52;;;;;;;0.70;0.70;;;;;;;16.42;59.60;101876.72;4952391;28;20098;-48
2021/06/12 08:38:23;;;;;;;1.95;1.10;;;;;;;16.44;59.66;101880.00;4954336;29;20086;-47
2021/06/12 08:40:50;;;;;;;2.78;1.17;;;;;;;16.49;59.58;101881.69;4953637;29;20078;-45
2021/06/12 08:43:27;;;;;;;4.80;1.27;;;;;;;16.50;59.76;101877.72;4952499;29;20179;-46
2021/06/12 08:45:55;;;;;;;5.40;1.30;;;;;;;16.49;59.67;101879.72;4953417;29;20043;-46
2021/06/12 08:48:23;;;;;;;1.67;1.27;;;;;;;16.55;59.52;101872.72;4936655;29;20047;-48
2021/06/12 08:50:50;;;;;;;2.33;1.30;;;;;;;16.78;59.59;101878.53;4951827;29;20051;-47
2021/06/12 08:53:18;;;;;;;2.60;1.20;;;;;;;17.15;59.34;101876.25;4953890;29;20059;-48
2021/06/12 08:55:45;;;;;;;2.45;1.20;;;;;;;17.19;59.22;101882.75;4953218;29;20098;-45
2021/06/12 08:58:13;;;;;;;1.67;1.00;;;;;;;17.19;59.14;101886.38;4934962;29;20078;-47
2021/06/12 09:00:41;;;;;;;1.83;1.27;;;;;;;17.13;59.04;101907.41;4953781;29;20062;-44
2021/06/12 09:03:14;;;;;;;2.42;1.20;;;;;;;17.00;58.74;101903.06;4953056;28;20082;-44
2021/06/12 09:05:48;;;;;;;3.05;1.15;;;;;;;16.93;59.05;101903.72;4951116;29;20798;-43
2021/06/12 09:08:23;;;;;;;2.30;1.10;;;;;;;16.96;59.29;101913.38;4954023;29;20078;-46
2021/06/12 09:11:13;;;;;;;2.50;0.93;;;;;;;16.98;59.37;101916.59;4953277;29;20129;-49
2021/06/12 09:13:46;;;;;;;3.78;1.08;;;;;;;17.01;59.22;101924.28;4951010;29;20528;-45
2021/06/12 09:16:38;;;;;;;3.38;1.85;;;;;;;17.00;59.10;101919.84;4952947;29;20047;-49
2021/06/12 09:19:15;;;;;;;5.38;1.20;;;;;;;16.89;59.14;101924.38;4927142;29;20118;-47
2021/06/12 09:21:47;;;;;;;1.33;1.23;;;;;;;16.82;59.50;101925.00;4935565;28;20130;-51
2021/06/12 09:24:45;;;;;;;3.88;1.30;;;;;;;16.84;59.80;101928.22;4963762;28;20082;-48
2021/06/12 09:27:16;;;;;;;4.68;1.17;;;;;;;16.95;59.81;101928.50;4952662;29;20067;-49
2021/06/12 09:29:48;;;;;;;2.60;1.10;;;;;;;17.05;59.79;101920.41;4952318;29;20063;-47
2021/06/12 09:32:26;;;;;;;;;;;;;;;17.20;59.27;101918.78;4936086;29;20133;-47
2021/06/12 09:35:06;;;;;;;2.22;1.23;;;;;;;17.28;59.08;101925.38;4949697;29;20033;-47
2021/06/12 09:37:34;;;;;;;3.08;0.98;;;;;;;17.29;59.53;101927.00;4952135;29;20047;-47
2021/06/12 09:40:16;;;;;;;3.05;1.35;;;;;;;17.43;59.24;101925.34;4934213;29;20468;-47
2021/06/12 09:42:45;;;;;;;4.38;1.48;;;;;;;17.67;59.08;101929.13;4947996;29;20514;-45
2021/06/12 09:45:31;;;;;;;4.32;1.40;;;;;;;17.98;58.57;101926.25;4951666;29;20035;-48
2021/06/12 09:48:12;;;;;;;2.67;1.25;;;;;;;18.03;57.83;101923.16;4951769;29;20659;-48
2021/06/12 09:50:40;;;;;;;4.85;1.10;;;;;;;18.09;57.84;101927.28;4939446;29;20127;-46
2021/06/12 09:53:16;;;;;;;1.90;1.25;;;;;;;18.17;56.30;101935.47;4951857;29;20079;-48
2021/06/12 09:55:44;;;;;;;2.92;1.33;;;;;;;18.22;56.98;101931.56;4939000;29;20039;-45
2021/06/12 09:58:14;;;;;;;1.98;1.58;;;;;;;18.38;56.79;101929.50;4952075;29;20083;-47
2021/06/12 10:00:44;;;;;;;1.70;0.73;;;;;;;18.58;56.50;101928.34;4950340;29;20102;-48
2021/06/12 10:03:19;;;;;;;2.13;1.63;;;;;;;18.54;55.79;101933.06;4927888;29;20484;-46
2021/06/12 10:05:46;;;;;;;4.75;1.17;;;;;;;18.49;56.20;101938.97;4950420;29;20051;-46
2021/06/12 10:08:15;;;;;;;1.88;1.35;;;;;;;18.42;55.96;101947.22;4949354;29;20051;-52
2021/06/12 10:10:49;;;;;;;1.70;0.98;;;;;;;18.34;55.88;101951.06;4950131;29;20074;-49
2021/06/12 10:13:17;;;;;;;2.55;1.10;;;;;;;18.16;55.84;101956.28;4949518;29;20503;-49
2021/06/12 10:15:47;;;;;;;4.40;1.30;;;;;;;18.04;56.33;101953.63;4950412;29;20043;-48
2021/06/12 10:18:22;;;;;;;2.63;0.90;;;;;;;18.03;56.21;101949.19;4933227;29;20165;-46
2021/06/12 10:20:49;;;;;;;2.22;1.10;;;;;;;18.09;56.40;101955.31;4950392;29;20047;-47
2021/06/12 10:23:16;;;;;;;3.38;0.90;;;;;;;18.23;56.31;101950.03;4961337;28;21551;-51
2021/06/12 10:25:44;;;;;;;3.17;1.10;;;;;;;18.38;56.21;101963.16;4952571;29;20043;-48
2021/06/12 10:28:12;;;;;;;2.33;0.60;;;;;;;18.51;56.11;101961.03;4933918;29;20059;-48
2021/06/12 10:30:40;;;;;;;1.50;0.80;;;;;;;18.57;56.32;101956.75;4934180;29;20047;-47
2021/06/12 10:33:08;;;;;;;1.38;0.80;;;;;;;18.54;56.27;101949.91;4951127;29;20053;-50
2021/06/12 10:35:36;;;;;;;3.78;1.05;;;;;;;18.44;55.98;101961.69;4951621;29;20062;-47
2021/06/12 10:38:12;;;;;;;1.45;0.95;;;;;;;18.29;55.92;101964.56;4952096;29;20043;-46
2021/06/12 10:40:51;;;;;;;1.45;1.35;;;;;;;18.10;56.05;101962.56;4951973;29;20115;-48
2021/06/12 10:43:23;;;;;;;3.35;1.45;;;;;;;18.07;56.20;101963.28;4949974;28;20106;-51
2021/06/12 10:46:02;;;;;;;3.35;1.20;;;;;;;18.09;56.17;101966.53;4935095;29;20047;-46
2021/06/12 10:48:54;;;;;;;1.20;0.80;;;;;;;18.14;56.15;101957.81;4950130;29;20046;-47
2021/06/12 10:51:27;;;;;;;2.80;1.38;;;;;;;18.27;55.80;101962.13;4950844;29;20121;-44
2021/06/12 10:54:32;;;;;;;1.23;1.08;;;;;;;18.49;55.65;101963.41;4951752;29;20097;-45
2021/06/12 10:56:56;;;;;;;;;;;;;;;18.54;55.89;101957.50;4950737;29;20059;-48
2021/06/12 10:59:41;;;;;;;1.63;0.80;;;;;;;18.55;54.94;101968.38;4951512;29;19990;-49
2021/06/12 11:02:20;;;;;;;1.50;0.88;;;;;;;18.40;55.85;101971.22;4951851;29;20043;-51
2021/06/12 11:05:04;;;;;;;3.42;0.82;;;;;;;18.37;55.67;101967.16;4950424;28;20054;-46
2021/06/12 11:07:31;;;;;;;2.92;1.17;;;;;;;18.42;55.78;101982.88;4948442;29;20547;-46
2021/06/12 11:10:13;;;;;;;3.55;0.88;;;;;;;18.44;55.83;101977.69;4933106;29;20055;-45
2021/06/12 11:12:47;;;;;;;;;;;;;;;18.47;56.21;101977.81;4951273;29;20126;-44
2021/06/12 11:15:27;;;;;;;2.40;1.10;;;;;;;18.69;55.87;101977.03;4950586;29;19969;-44
2021/06/12 11:18:29;;;;;;;0.73;0.55;;;;;;;18.82;55.46;101977.72;4948372;29;20452;-46
2021/06/12 11:20:59;;;;;;;2.40;0.85;;;;;;;18.85;55.31;101972.16;4892656;29;20172;-52
2021/06/12 11:23:55;;;;;;;4.72;0.85;;;;;;;18.74;55.24;101971.13;4934319;29;20468;-45
2021/06/12 11:26:23;;;;;;;2.58;0.90;;;;;;;18.67;55.71;101964.56;4950472;29;20082;-46
2021/06/12 11:29:10;;;;;;;1.02;0.95;;;;;;;18.60;55.66;101968.06;4950405;29;20138;-44
2021/06/12 11:31:38;;;;;;;2.53;0.90;;;;;;;18.63;55.76;101972.94;4951276;29;20044;-44
2021/06/12 11:34:15;;;;;;;3.78;0.85;;;;;;;18.77;55.57;101970.38;4950810;29;20468;-44
2021/06/12 11:36:47;;;;;;;2.55;0.47;;;;;;;18.97;55.47;101967.56;4933496;29;20063;-46
2021/06/12 11:39:15;;;;;;;5.63;2.13;;;;;;;19.22;55.19;101963.22;4951366;29;20075;-46